Flight Track Log - Related Links

Times and Time Zones

All times are in EDT time to prevent confusion due to time zone crossing. See the N488AA flight status page for this flight to view local times or setup timezone preferences in your user account.

Time Position Orientation Groundspeed Altitude Reporting Facility
EDT Latitude Longitude Course Direction KTS MPH feet Rate Location/Type
Mon 10:12:14 AM 32.9333 -97.0289 15° North 185 213 1,800  Level FAA TRACON SMA TRACON (SMA)
Mon 10:12:53 AM 32.9683 -97.0181 23° Northeast 215 247 2,800 1,800 Climbing FAA TRACON SMA TRACON (SMA)
Mon 10:13:34 AM 33.0092 -96.9978 81° East 238 274 4,200 2,250 Climbing FAA TRACON SMA TRACON (SMA)
Mon 10:14:13 AM 33.0167 -96.9417 97° East 268 308 5,800 2,127 Climbing FAA TRACON SMA TRACON (SMA)
Mon 10:14:53 AM 33.0111 -96.8892 106° East 259 298 7,000 1,950 Climbing FAA TRACON SMA TRACON (SMA)
Mon 10:15:33 AM 32.9958 -96.8275 109° East 283 326 8,400 2,250 Climbing FAA TRACON SMA TRACON (SMA)
Mon 10:16:13 AM 32.9778 -96.7642 106° East 293 337 10,000 1,852 Climbing FAA TRACON SMA TRACON (SMA)
Mon 10:16:54 AM 32.9636 -96.7061 106° East 300 345 10,900 1,200 Climbing FAA TRACON SMA TRACON (SMA)
Mon 10:17:33 AM 32.9461 -96.6319 108° East 343 395 11,600 1,367 Climbing FAA TRACON SMA TRACON (SMA)
Mon 10:18:13 AM 32.9242 -96.5517 108° East 370 426 12,700 1,385 Climbing FAA TRACON SMA TRACON (SMA)
Mon 10:18:51 AM 32.9028 -96.4753 105° East 398 458 13,400 1,769 Climbing FAA TRACON SMA TRACON (SMA)
Mon 10:19:31 AM 32.8825 -96.3833 101° East 416 479 15,000 1,926 Climbing FAA TRACON SMA TRACON (SMA)
Mon 10:20:12 AM 32.8689 -96.2994 89° East 424 488 16,000 2,169 Climbing FAA TRACON SMA TRACON (SMA)
Mon 10:20:54 AM 32.8708 -96.2028 88° East 422 486 18,000 2,049 Climbing FAA TRACON SMA TRACON (SMA)
Mon 10:21:34 AM 32.8733 -96.1053 88° East 430 495 18,800 1,714 Climbing FAA TRACON SMA TRACON (SMA)
Mon 10:22:11 AM 32.8753 -96.0158 91° East 440 506 20,200 1,611 Climbing FAA TRACON SMA TRACON (SMA)
Mon 10:23:22 AM 32.8717 -95.8428 88° East 439 505 21,700 1,328 Climbing Fort Worth Center
Mon 10:24:22 AM 32.8761 -95.7042 86° East 456 525 23,100 1,467 Climbing Fort Worth Center
Mon 10:26:22 AM 32.8925 -95.3947 83° East 470 541 26,100 1,400 Climbing Fort Worth Center
Mon 10:27:22 AM 32.9086 -95.2433 80° East 465 535 27,300 1,150 Climbing Fort Worth Center
Mon 10:28:22 AM 32.9308 -95.0869 81° East 465 535 28,400 850 Climbing Fort Worth Center
Mon 10:29:22 AM 32.9508 -94.9328 80° East 465 535 29,000 300 Climbing Fort Worth Center
Mon 10:30:22 AM 32.9728 -94.7764 82° East 465 535 29,000  Level Fort Worth Center
Mon 10:31:22 AM 32.9903 -94.6197 81° East 470 541 29,000  Level Fort Worth Center
Mon 10:32:22 AM 33.0097 -94.4656 82° East 470 541 29,000  Level Fort Worth Center
Mon 10:33:22 AM 33.0289 -94.3089 81° East 470 541 29,000  Level Fort Worth Center
Mon 10:34:22 AM 33.0500 -94.1519 83° East 470 541 29,000  Level Fort Worth Center
Mon 10:35:22 AM 33.0667 -93.9953 81° East 470 541 29,000  Level Fort Worth Center
Mon 10:36:22 AM 33.0875 -93.8381 82° East 470 541 29,000  Level Fort Worth Center
Mon 10:37:22 AM 33.1058 -93.6811 81° East 475 547 29,000  Level Fort Worth Center
Mon 10:38:22 AM 33.1261 -93.5242 82° East 475 547 29,000  Level Fort Worth Center
Mon 10:39:22 AM 33.1442 -93.3719 81° East 475 547 29,000  Level Fort Worth Center
Mon 10:40:22 AM 33.1642 -93.2147 82° East 475 547 29,000  Level Fort Worth Center
Mon 10:41:22 AM 33.1819 -93.0625 83° East 469 540 29,000  Level Fort Worth Center
Mon 10:42:22 AM 33.1992 -92.9053 82° East 469 540 29,000  Level Fort Worth Center
Mon 10:43:22 AM 33.2167 -92.7506 82° East 469 540 29,000  Level Fort Worth Center
Mon 10:44:22 AM 33.2358 -92.5956 84° East 469 540 29,000  Level Fort Worth Center
Mon 10:46:32 AM 33.2669 -92.2628 80° East 461 531 29,000  Level Memphis Center
Mon 10:47:32 AM 33.2881 -92.1117 84° East 461 531 29,000  Level Memphis Center
Mon 10:48:32 AM 33.3006 -91.9603 82° East 461 531 29,000  Level Memphis Center
Mon 10:49:32 AM 33.3192 -91.8067 84° East 461 531 29,000  Level Memphis Center
Mon 10:50:32 AM 33.3333 -91.6403 83° East 461 531 29,000  Level Memphis Center
Mon 10:51:32 AM 33.3472 -91.5011 83° East 467 537 29,000  Level Memphis Center
Mon 10:52:32 AM 33.3631 -91.3472 85° East 467 537 29,000  Level Memphis Center
Mon 10:53:32 AM 33.3747 -91.1931 82° East 462 532 29,000  Level Memphis Center
Mon 10:54:32 AM 33.3925 -91.0389 84° East 462 532 29,000  Level Memphis Center
Mon 10:55:32 AM 33.4056 -90.8822 82° East 462 532 29,000  Level Memphis Center
Mon 10:56:32 AM 33.4228 -90.7256 84° East 462 532 29,000  Level Memphis Center
Mon 10:57:32 AM 33.4358 -90.5739 83° East 462 532 29,000  Level Memphis Center
Mon 10:58:32 AM 33.4506 -90.4194 84° East 462 532 29,000  Level Memphis Center
Mon 10:59:32 AM 33.4631 -90.2675 88° East 462 532 29,000  Level Memphis Center
Mon 11:00:32 AM 33.4669 -90.1106 88° East 462 532 29,000  Level Memphis Center
Mon 11:01:32 AM 33.4708 -89.9564 89° East 462 532 29,000  Level Memphis Center
Mon 11:02:32 AM 33.4722 -89.8044 89° East 462 532 29,000  Level Memphis Center
Mon 11:03:32 AM 33.4736 -89.6525 89° East 457 526 29,000  Level Memphis Center
Mon 11:04:32 AM 33.4767 -89.4981 89° East 457 526 29,000  Level Memphis Center
Mon 11:05:32 AM 33.4778 -89.3461 89° East 457 526 29,000  Level Memphis Center
Mon 11:06:32 AM 33.4806 -89.1892 89° East 457 526 29,000  Level Memphis Center
Mon 11:07:32 AM 33.4831 -89.0347 90° East 462 532 29,000  Level Memphis Center
Mon 11:08:32 AM 33.4836 -88.8828 90° East 462 532 29,000  Level Memphis Center
Mon 11:09:32 AM 33.4836 -88.7283 88° East 462 532 29,000  Level Memphis Center
Mon 11:10:32 AM 33.4878 -88.5764 85° East 462 532 29,000  Level Memphis Center
Mon 11:11:32 AM 33.5000 -88.4217 84° East 462 532 29,000  Level Memphis Center
Mon 11:12:32 AM 33.5144 -88.2669 83° East 462 532 29,000  Level Memphis Center
Mon 11:13:32 AM 33.5306 -88.1144 82° East 462 532 29,000  Level Memphis Center
Mon 11:14:32 AM 33.5483 -87.9569 82° East 462 532 29,000  Level Memphis Center
Mon 11:16:41 AM 33.5881 -87.6122 82° East 460 529 29,000  Level Atlanta Center
Mon 11:17:41 AM 33.6069 -87.4558 83° East 465 535 29,000  Level Atlanta Center
Mon 11:18:41 AM 33.6239 -87.2969 83° East 465 535 29,000  Level Atlanta Center
Mon 11:19:41 AM 33.6403 -87.1428 82° East 465 535 29,000  Level Atlanta Center
Mon 11:20:41 AM 33.6589 -86.9861 86° East 465 535 29,000  Level Atlanta Center
Mon 11:21:41 AM 33.6658 -86.8642 89° East 465 535 29,000  Level Atlanta Center
Mon 11:22:41 AM 33.6675 -86.6919 91° East 465 535 29,000  Level Atlanta Center
Mon 11:23:41 AM 33.6647 -86.5347 90° East 465 535 29,000  Level Atlanta Center
Mon 11:24:41 AM 33.6636 -86.3775 90° East 465 535 29,000  Level Atlanta Center
Mon 11:25:41 AM 33.6644 -86.2178 92° East 465 535 29,000  Level Atlanta Center
Mon 11:26:41 AM 33.6608 -86.0581 91° East 465 535 29,000  Level Atlanta Center
Mon 11:27:41 AM 33.6592 -85.9006 90° East 470 541 29,000  Level Atlanta Center
Mon 11:28:41 AM 33.6594 -85.7308 91° East 470 541 29,000  Level Atlanta Center
Mon 11:29:41 AM 33.6572 -85.5761 91° East 465 535 29,000  Level Atlanta Center
Mon 11:30:41 AM 33.6550 -85.4164 93° East 465 535 29,000  Level Atlanta Center
Mon 11:31:41 AM 33.6483 -85.2592 91° East 472 543 29,000  Level Atlanta Center
Mon 11:32:41 AM 33.6456 -85.1019 92° East 477 549 29,000  Level Atlanta Center
Mon 11:33:41 AM 33.6406 -84.9444 92° East 475 547 29,000  Level Atlanta Center
Mon 11:36:53 AM 33.6286 -84.4581 88° East 475 547 29,000 190 Level Atlanta Center
Mon 11:37:53 AM 33.6333 -84.3033 79° East 469 540 29,800 650 Climbing Atlanta Center
Mon 11:38:53 AM 33.6606 -84.1361 52° Northeast 469 540 30,300 240 Climbing Atlanta Center
Mon 11:42:53 AM 33.9439 -83.6908 53° Northeast 447 514 31,000 78 Climbing Atlanta Center
Mon 11:47:53 AM 34.3433 -83.0575 52° Northeast 453 521 31,000  Level Atlanta Center
Mon 11:48:53 AM 34.4236 -82.9308 53° Northeast 458 527 31,000  Level Atlanta Center
Mon 11:49:53 AM 34.4997 -82.8064 54° Northeast 458 527 31,000  Level Atlanta Center
Mon 11:50:53 AM 34.5736 -82.6842 54° Northeast 458 527 31,000  Level Atlanta Center
Mon 11:51:53 AM 34.6472 -82.5592 52° Northeast 458 527 31,000  Level Atlanta Center
Mon 11:52:54 AM 34.7231 -82.4392 55° Northeast 458 527 31,000  Level Atlanta Center
Mon 11:53:53 AM 34.7964 -82.3136 53° Northeast 458 527 31,000  Level Atlanta Center
Mon 11:54:53 AM 34.8739 -82.1881 52° Northeast 458 527 31,000  Level Atlanta Center
Mon 11:55:53 AM 34.9575 -82.0594 55° Northeast 453 521 31,000  Level Atlanta Center
Mon 11:56:53 AM 35.0306 -81.9333 55° Northeast 453 521 31,000  Level Atlanta Center
Mon 11:57:53 AM 35.1033 -81.8072 55° Northeast 453 521 31,000  Level Atlanta Center
Mon 11:58:53 AM 35.1681 -81.6936 56° Northeast 458 527 31,000  Level Atlanta Center
Mon 11:59:53 AM 35.2386 -81.5669 55° Northeast 458 527 31,000  Level Atlanta Center
Mon 12:00:53 PM 35.3111 -81.4403 56° Northeast 458 527 31,000  Level Atlanta Center
Mon 12:01:53 PM 35.3833 -81.3106 56° Northeast 453 521 31,000  Level Atlanta Center
Mon 12:02:53 PM 35.4533 -81.1808 56° Northeast 453 521 31,000  Level Atlanta Center
Mon 12:03:53 PM 35.5253 -81.0506 55° Northeast 458 527 31,000  Level Atlanta Center
Mon 12:04:53 PM 35.5972 -80.9228 55° Northeast 458 527 31,000  Level Atlanta Center
Mon 12:05:53 PM 35.6692 -80.7947 55° Northeast 459 528 31,000  Level Atlanta Center
Mon 12:06:53 PM 35.7408 -80.6692 56° Northeast 452 520 31,000  Level Atlanta Center
Mon 12:09:18 PM 35.9197 -80.3422 56° Northeast 454 522 31,000  Level Washington Center
Mon 12:10:19 PM 35.9872 -80.2178 56° Northeast 449 517 31,000  Level Washington Center
Mon 12:11:20 PM 36.0500 -80.1033 56° Northeast 449 517 31,000  Level Washington Center
Mon 12:12:20 PM 36.1172 -79.9811 56° Northeast 436 502 31,000  Level Washington Center
Mon 12:13:18 PM 36.1867 -79.8539 57° Northeast 431 496 31,000 -403 Level Washington Center
Mon 12:14:19 PM 36.2603 -79.7136 56° Northeast 437 503 30,200 -836 Descending Washington Center
Mon 12:15:20 PM 36.3225 -79.6008 57° Northeast 437 503 29,300 -885 Descending Washington Center
Mon 12:16:21 PM 36.3894 -79.4728 57° Northeast 443 510 28,400 -661 Descending Washington Center
Mon 12:17:18 PM 36.4561 -79.3442 57° Northeast 443 510 28,000 -462 Descending Washington Center
Mon 12:18:18 PM 36.5292 -79.2056 54° Northeast 443 510 27,500 -744 Descending Washington Center
Mon 12:19:19 PM 36.5975 -79.0897 58° Northeast 430 495 26,500 -1,041 Descending Washington Center
Mon 12:20:19 PM 36.6592 -78.9683 58° Northeast 412 474 25,400 -744 Descending Washington Center
Mon 12:21:20 PM 36.7211 -78.8439 56° Northeast 412 474 25,000 -198 Descending Washington Center
Mon 12:22:20 PM 36.7825 -78.7297 57° Northeast 418 481 25,000  Level Washington Center
Mon 12:23:18 PM 36.8442 -78.6103 57° Northeast 418 481 25,000  Level Washington Center
Mon 12:24:18 PM 36.9097 -78.4856 57° Northeast 418 481 25,000  Level Washington Center
Mon 12:25:19 PM 36.9819 -78.3478 58° Northeast 424 488 25,000  Level Washington Center
Mon 12:26:19 PM 37.0453 -78.2228 57° Northeast 424 488 25,000  Level Washington Center
Mon 12:27:19 PM 37.1039 -78.1100 58° Northeast 424 488 25,000  Level Washington Center
Mon 12:28:20 PM 37.1669 -77.9844 58° Northeast 424 488 25,000  Level Washington Center
Mon 12:29:20 PM 37.2300 -77.8586 57° Northeast 424 488 25,000 -458 Level Washington Center
Mon 12:30:18 PM 37.2947 -77.7325 58° Northeast 424 488 24,100 -1,373 Descending Washington Center
Mon 12:31:18 PM 37.3575 -77.6064 57° Northeast 424 488 22,300 -1,339 Descending Washington Center
Mon 12:32:19 PM 37.4222 -77.4825 58° Northeast 424 488 21,400 -639 Descending Washington Center
Mon 12:33:20 PM 37.4825 -77.3608 23° Northeast 418 481 21,000 -198 Descending Washington Center
Mon 12:34:20 PM 37.5811 -77.3083 11° North 390 449 21,000 -1,017 Level Washington Center
Mon 12:35:18 PM 37.6900 -77.2819 North 373 429 19,000 -1,831 Descending Washington Center
Mon 12:36:18 PM 37.7944 -77.2606 10° North 378 435 17,400 -1,785 Descending Washington Center
Mon 12:37:19 PM 37.8950 -77.2392 North 373 429 15,400 -1,884 Descending Washington Center
Mon 12:38:19 PM 37.9953 -77.2203 10° North 368 423 13,600 -1,686 Descending Washington Center
Mon 12:39:20 PM 38.0936 -77.1986 10° North 363 418 12,000 -1,537 Descending Washington Center
Mon 12:40:20 PM 38.1878 -77.1767 North 353 406 10,500 -1,017 Descending Washington Center
Mon 12:41:18 PM 38.2778 -77.1575 North 343 395 10,000 -254 Descending Washington Center
Mon 12:42:18 PM 38.3717 -77.1411 North 337 388 10,000  Level Washington Center
Mon 12:43:19 PM 38.4639 -77.1217 North 332 382 10,000  Level Washington Center
Mon 12:44:20 PM 38.5558 -77.1022 North 332 382 10,000  Level Washington Center
Mon 12:45:08 PM 38.6500 -77.0833 11° North 327 376 10,000 -385 Level Potomac TRACON
Mon 12:46:09 PM 38.7167 -77.0667 351° North 282 325 9,300 -1,140 Descending Potomac TRACON
Mon 12:47:09 PM 38.8000 -77.0833 314° West 283 326 7,700 -1,450 Descending Potomac TRACON
Mon 12:48:09 PM 38.8500 -77.1500 314° West 262 302 6,400 -1,200 Descending Potomac TRACON
Mon 12:49:09 PM 38.9000 -77.2167 322° Northwest 235 270 5,300 -700 Descending Potomac TRACON
Mon 12:50:09 PM 38.9500 -77.2667 322° Northwest 190 219 5,000 -150 Descending Potomac TRACON
Mon 12:51:09 PM 38.9833 -77.3000 21° North 179 206 5,000  Level Potomac TRACON
Mon 12:52:04 PM 39.0167 -77.2833 108° East 212 244 5,000 -275 Level Potomac TRACON
Mon 12:52:58 PM 39.0000 -77.2167 113° Southeast 193 222 4,500 -895 Descending Potomac TRACON
Mon 12:53:58 PM 38.9833 -77.1667 142° Southeast 166 191 3,300 -1,148 Descending Potomac TRACON
Mon 12:54:53 PM 38.9500 -77.1333 142° Southeast 169 194 2,300 -730 Descending Potomac TRACON
Mon 12:55:53 PM 38.9167 -77.1000 247° West 151 174 1,900 200 Descending Potomac TRACON
Mon 12:56:53 PM 38.9000 -77.1500 256° West 200 230 2,700 550 Climbing Potomac TRACON
Mon 12:57:53 PM 38.8833 -77.2333 180° South 208 239 3,000 209 Climbing Potomac TRACON
Mon 12:58:48 PM 38.8500 -77.2333 180° South 208 239 3,100 109 Climbing Potomac TRACON

Login

Don't have an account? Register now (free) for customized features, flight alerts, and more!